createdAt,value
2022-12-29T00:01:02.910Z,0.98
2022-12-29T00:04:08.825Z,0.93
2022-12-29T00:07:15.029Z,0.95
2022-12-29T00:10:18.569Z,1.00
2022-12-29T00:13:21.280Z,1.00
2022-12-29T00:16:24.349Z,0.90
2022-12-29T00:19:27.391Z,0.93
2022-12-29T00:22:30.305Z,1.10
2022-12-29T00:25:33.110Z,0.98
2022-12-29T00:28:35.601Z,0.90
2022-12-29T00:31:38.117Z,0.88
2022-12-29T00:34:40.356Z,0.90
2022-12-29T00:37:42.996Z,0.82
2022-12-29T00:40:45.545Z,1.00
2022-12-29T00:43:48.113Z,0.90
2022-12-29T00:46:50.576Z,0.93
2022-12-29T00:49:53.057Z,1.08
2022-12-29T00:52:55.478Z,1.10
2022-12-29T00:55:57.701Z,0.93
2022-12-29T00:58:59.765Z,0.95
2022-12-29T01:02:04.185Z,0.90
2022-12-29T01:05:06.337Z,0.90
2022-12-29T01:08:09.840Z,0.90
2022-12-29T01:11:12.765Z,0.88
2022-12-29T01:14:16.197Z,0.75
2022-12-29T01:17:20.519Z,0.90
2022-12-29T01:20:22.942Z,0.90
2022-12-29T01:23:25.537Z,0.82
2022-12-29T01:26:28.192Z,1.00
2022-12-29T01:29:31.811Z,0.80
2022-12-29T01:32:34.311Z,0.80
2022-12-29T01:35:36.962Z,0.90
2022-12-29T01:38:39.761Z,1.00
2022-12-29T01:41:41.982Z,1.00
2022-12-29T01:44:44.176Z,0.80
2022-12-29T01:47:46.744Z,0.70
2022-12-29T01:50:49.203Z,0.70
2022-12-29T01:53:52.233Z,0.70
2022-12-29T01:56:54.442Z,0.70
2022-12-29T01:59:56.815Z,0.80
2022-12-29T02:02:59.228Z,0.60
2022-12-29T02:06:02.016Z,0.60
2022-12-29T02:09:04.485Z,0.70
2022-12-29T02:12:07.378Z,0.52
2022-12-29T02:15:10.038Z,0.70
2022-12-29T02:18:13.014Z,0.70
2022-12-29T02:21:15.293Z,0.60
2022-12-29T02:24:17.491Z,0.60
2022-12-29T02:27:21.255Z,0.68
2022-12-29T02:30:24.366Z,0.60
2022-12-29T02:33:28.211Z,0.50
2022-12-29T02:36:31.110Z,0.70
2022-12-29T02:39:34.403Z,0.50
2022-12-29T02:42:37.167Z,0.65
2022-12-29T02:45:39.932Z,0.60
2022-12-29T02:48:42.465Z,0.50
2022-12-29T02:51:44.704Z,0.52
2022-12-29T02:54:47.807Z,0.60
2022-12-29T02:57:50.456Z,0.70
2022-12-29T03:00:53.088Z,0.70
2022-12-29T03:03:58.643Z,0.60
2022-12-29T03:07:01.354Z,0.75
2022-12-29T03:10:04.228Z,0.60
2022-12-29T03:13:07.090Z,0.50
2022-12-29T03:16:11.105Z,0.63
2022-12-29T03:19:14.953Z,0.60
2022-12-29T03:22:17.452Z,0.50
2022-12-29T03:25:26.056Z,0.60
2022-12-29T03:28:28.812Z,0.50
2022-12-29T03:31:31.307Z,0.52
2022-12-29T03:34:33.254Z,0.60
2022-12-29T03:37:35.934Z,0.60
2022-12-29T03:40:38.430Z,0.45
2022-12-29T03:43:41.061Z,0.60
2022-12-29T03:46:43.788Z,0.57
2022-12-29T03:49:47.691Z,0.50
2022-12-29T03:52:50.577Z,0.45
2022-12-29T03:55:53.328Z,0.50
2022-12-29T03:58:56.008Z,0.40
2022-12-29T04:02:07.751Z,0.70
2022-12-29T04:05:10.402Z,0.47
2022-12-29T04:08:13.588Z,0.68
2022-12-29T04:11:18.922Z,0.70
2022-12-29T04:14:21.945Z,0.60
2022-12-29T04:17:24.765Z,0.40
2022-12-29T04:20:29.134Z,0.43
2022-12-29T04:23:33.696Z,0.50
2022-12-29T04:26:36.569Z,0.50
2022-12-29T04:29:50.723Z,0.60
2022-12-29T04:33:21.688Z,0.55
2022-12-29T04:36:29.749Z,0.50
2022-12-29T04:39:33.337Z,0.40
2022-12-29T04:42:36.576Z,0.55
2022-12-29T04:45:39.814Z,0.32
2022-12-29T04:48:51.618Z,0.43
2022-12-29T04:52:06.835Z,0.70
2022-12-29T04:55:10.753Z,0.50
2022-12-29T04:58:17.529Z,0.50
2022-12-29T05:01:23.585Z,0.60
2022-12-29T05:04:26.388Z,0.50
2022-12-29T05:07:28.699Z,0.60
2022-12-29T05:10:32.009Z,0.60
2022-12-29T05:13:39.135Z,0.40
2022-12-29T05:16:41.425Z,0.45
2022-12-29T05:19:44.521Z,0.70
2022-12-29T05:22:47.816Z,0.60
2022-12-29T05:25:50.643Z,0.68
2022-12-29T05:29:11.420Z,0.52
2022-12-29T05:32:13.627Z,0.65
2022-12-29T05:35:18.282Z,0.70
2022-12-29T05:38:20.897Z,0.50
2022-12-29T05:41:23.465Z,0.57
2022-12-29T05:44:43.675Z,0.60
2022-12-29T05:48:06.310Z,0.43
2022-12-29T05:51:44.659Z,0.50
2022-12-29T05:54:48.528Z,0.60
2022-12-29T05:57:54.528Z,0.40
2022-12-29T06:00:57.975Z,0.47
2022-12-29T06:04:01.564Z,0.50
2022-12-29T06:07:04.611Z,0.50
2022-12-29T06:10:15.955Z,0.63
2022-12-29T06:13:22.652Z,0.45
2022-12-29T06:16:25.675Z,0.50
2022-12-29T06:19:31.919Z,0.50
2022-12-29T06:22:34.159Z,0.52
2022-12-29T06:25:37.627Z,0.50
2022-12-29T06:28:41.142Z,0.60
2022-12-29T06:31:44.145Z,0.40
2022-12-29T06:34:47.703Z,0.50
2022-12-29T06:37:50.291Z,0.30
2022-12-29T06:40:52.557Z,0.50
2022-12-29T06:43:57.557Z,0.77
2022-12-29T06:47:14.402Z,0.60
2022-12-29T06:50:16.579Z,0.57
2022-12-29T06:53:19.479Z,0.65
2022-12-29T06:56:22.218Z,0.60
2022-12-29T06:59:24.479Z,0.70
2022-12-29T07:02:27.409Z,0.60
2022-12-29T07:05:29.875Z,0.43
2022-12-29T07:08:32.472Z,0.90
2022-12-29T07:11:35.734Z,0.70
2022-12-29T07:14:42.955Z,0.75
2022-12-29T07:17:46.029Z,0.97
2022-12-29T07:20:48.737Z,0.65
2022-12-29T07:23:51.337Z,0.60
2022-12-29T07:26:54.023Z,0.60
2022-12-29T07:29:56.579Z,0.70
2022-12-29T07:32:59.113Z,0.63
2022-12-29T07:36:02.058Z,0.50
2022-12-29T07:39:04.544Z,0.75
2022-12-29T07:42:07.391Z,0.50
2022-12-29T07:45:17.655Z,0.60
2022-12-29T07:48:24.192Z,0.60
2022-12-29T07:51:27.123Z,0.70
2022-12-29T07:54:29.352Z,0.70
2022-12-29T07:57:32.463Z,0.60
2022-12-29T08:00:34.745Z,0.73
2022-12-29T08:03:37.310Z,0.63
2022-12-29T08:06:40.087Z,0.70
2022-12-29T08:09:42.972Z,0.57
2022-12-29T08:12:45.190Z,0.68
2022-12-29T08:15:47.872Z,0.70
2022-12-29T08:18:50.389Z,0.73
2022-12-29T08:21:53.585Z,0.70
2022-12-29T08:24:56.738Z,0.60
2022-12-29T08:28:00.415Z,0.55
2022-12-29T08:31:03.242Z,0.75
2022-12-29T08:34:06.128Z,0.60
2022-12-29T08:37:09.093Z,0.50
2022-12-29T08:40:11.734Z,0.70
2022-12-29T08:43:18.466Z,0.52
2022-12-29T08:46:21.361Z,0.50
2022-12-29T08:49:25.203Z,0.70
2022-12-29T08:52:27.993Z,0.60
2022-12-29T08:55:31.042Z,0.57
2022-12-29T08:58:33.843Z,0.68
2022-12-29T09:01:36.886Z,0.73
2022-12-29T09:04:39.239Z,0.70
2022-12-29T09:07:41.905Z,0.60
2022-12-29T09:10:44.633Z,0.82
2022-12-29T09:13:47.086Z,0.70
2022-12-29T09:16:49.493Z,0.70
2022-12-29T09:19:52.078Z,0.70
2022-12-29T09:22:54.666Z,0.70
2022-12-29T09:25:56.870Z,0.77
2022-12-29T09:28:59.463Z,0.60
2022-12-29T09:32:02.074Z,0.77
2022-12-29T09:35:04.932Z,0.60
2022-12-29T09:38:07.832Z,0.57
2022-12-29T09:41:10.063Z,0.70
2022-12-29T09:44:12.698Z,0.68
2022-12-29T09:47:15.701Z,0.70
2022-12-29T09:50:18.367Z,0.75
2022-12-29T09:53:20.851Z,0.68
2022-12-29T09:56:23.307Z,0.90
2022-12-29T09:59:27.202Z,1.00
2022-12-29T10:02:29.850Z,0.93
2022-12-29T10:05:32.924Z,0.80
2022-12-29T10:08:35.450Z,0.77
2022-12-29T10:11:37.993Z,0.70
2022-12-29T10:14:40.647Z,0.85
2022-12-29T10:17:43.136Z,0.90
2022-12-29T10:20:46.310Z,0.70
2022-12-29T10:23:49.515Z,0.80
2022-12-29T10:26:52.578Z,0.52
2022-12-29T10:29:55.137Z,1.00
2022-12-29T10:32:57.587Z,0.80
2022-12-29T10:36:00.254Z,0.77
2022-12-29T10:39:02.890Z,0.82
2022-12-29T10:42:05.086Z,0.68
2022-12-29T10:45:08.086Z,0.70
2022-12-29T10:48:10.536Z,0.80
2022-12-29T10:51:13.130Z,1.00
2022-12-29T10:54:15.673Z,0.90
2022-12-29T10:57:18.584Z,0.60
2022-12-29T11:00:21.656Z,1.30
2022-12-29T11:03:24.788Z,0.90
2022-12-29T11:06:27.709Z,0.70
2022-12-29T11:09:41.939Z,0.85
2022-12-29T11:12:45.213Z,0.80
2022-12-29T11:15:47.896Z,0.82
2022-12-29T11:18:50.557Z,0.80
2022-12-29T11:21:52.706Z,1.00
2022-12-29T11:24:55.695Z,0.70
2022-12-29T11:27:58.385Z,1.05
2022-12-29T11:31:01.100Z,0.73
2022-12-29T11:34:04.001Z,1.00
2022-12-29T11:37:06.967Z,0.85
2022-12-29T11:40:09.245Z,0.85
2022-12-29T11:43:11.764Z,1.10
2022-12-29T11:46:14.760Z,1.20
2022-12-29T11:49:17.516Z,0.90
2022-12-29T11:52:19.723Z,1.02
2022-12-29T11:55:22.533Z,1.17
2022-12-29T11:58:25.186Z,0.90
2022-12-29T12:01:27.770Z,0.98
2022-12-29T12:04:30.412Z,0.98
2022-12-29T12:07:33.175Z,0.95
2022-12-29T12:10:36.183Z,0.80
2022-12-29T12:13:39.020Z,0.90
2022-12-29T12:16:41.645Z,0.90
2022-12-29T12:19:44.422Z,0.70
2022-12-29T12:22:46.926Z,0.90
2022-12-29T12:25:49.606Z,0.75
2022-12-29T12:28:52.253Z,1.00
2022-12-29T12:31:54.999Z,0.90
2022-12-29T12:34:58.132Z,0.90
2022-12-29T12:38:00.610Z,1.10
2022-12-29T12:41:03.303Z,1.15
2022-12-29T12:44:08.843Z,0.80
2022-12-29T12:47:11.462Z,1.25
2022-12-29T12:50:14.531Z,1.50
2022-12-29T12:53:17.330Z,0.82
2022-12-29T12:56:20.136Z,1.00
2022-12-29T12:59:23.093Z,1.10
2022-12-29T13:02:26.751Z,1.20
2022-12-29T13:05:29.666Z,1.10
2022-12-29T13:08:32.265Z,1.23
2022-12-29T13:11:34.928Z,1.10
2022-12-29T13:14:37.592Z,1.00
2022-12-29T13:17:40.239Z,1.10
2022-12-29T13:20:43.231Z,1.38
2022-12-29T13:23:46.179Z,1.30
2022-12-29T13:26:48.408Z,1.40
2022-12-29T13:29:51.388Z,1.42
2022-12-29T13:32:54.706Z,1.25
2022-12-29T13:35:57.596Z,1.00
2022-12-29T13:39:00.057Z,1.40
2022-12-29T13:42:02.356Z,1.20
2022-12-29T13:45:04.924Z,1.60
2022-12-29T13:48:07.798Z,1.40
2022-12-29T13:51:10.363Z,1.40
2022-12-29T13:54:12.826Z,1.27
2022-12-29T13:57:15.444Z,1.30
2022-12-29T14:00:18.180Z,1.35
2022-12-29T14:03:23.781Z,1.35
2022-12-29T14:06:29.336Z,1.40
2022-12-29T14:09:35.407Z,1.40
2022-12-29T14:12:37.981Z,1.10
2022-12-29T14:15:40.929Z,1.30
2022-12-29T14:18:43.276Z,1.35
2022-12-29T14:21:45.883Z,1.40
2022-12-29T14:24:48.507Z,1.20
2022-12-29T14:27:50.686Z,1.60
2022-12-29T14:30:53.239Z,1.20
2022-12-29T14:33:56.135Z,1.10
2022-12-29T14:36:59.539Z,1.48
2022-12-29T14:40:02.963Z,1.30
2022-12-29T14:43:05.174Z,1.45
2022-12-29T14:46:08.186Z,1.23
2022-12-29T14:49:11.216Z,1.33
2022-12-29T14:52:13.976Z,1.38
2022-12-29T14:55:16.589Z,1.30
2022-12-29T14:58:19.113Z,1.00
2022-12-29T15:01:21.695Z,1.10
2022-12-29T15:04:23.996Z,1.42
2022-12-29T15:07:26.819Z,1.42
2022-12-29T15:10:29.319Z,1.25
2022-12-29T15:13:31.917Z,1.08
2022-12-29T15:16:34.434Z,1.40
2022-12-29T15:19:37.111Z,0.85
2022-12-29T15:22:39.871Z,1.20
2022-12-29T15:25:42.088Z,1.17
2022-12-29T15:28:44.692Z,1.10
2022-12-29T15:31:47.697Z,1.00
2022-12-29T15:34:51.000Z,1.05
2022-12-29T15:37:53.858Z,1.10
2022-12-29T15:40:56.848Z,1.23
2022-12-29T15:43:59.448Z,1.10
2022-12-29T15:47:02.263Z,1.10
2022-12-29T15:50:04.613Z,1.00
2022-12-29T15:53:07.459Z,0.93
2022-12-29T15:56:10.386Z,1.00
2022-12-29T15:59:13.287Z,1.10
2022-12-29T16:02:15.933Z,1.08
2022-12-29T16:05:18.986Z,0.80
2022-12-29T16:08:21.451Z,0.90
2022-12-29T16:11:24.649Z,0.73
2022-12-29T16:14:28.144Z,0.90
2022-12-29T16:17:31.518Z,1.05
2022-12-29T16:20:33.659Z,1.05
2022-12-29T16:23:36.569Z,1.00
2022-12-29T16:26:39.762Z,0.90
2022-12-29T16:29:42.609Z,0.90
2022-12-29T16:32:45.245Z,1.20
2022-12-29T16:35:47.862Z,0.80
2022-12-29T16:38:50.779Z,0.98
2022-12-29T16:41:53.745Z,0.90
2022-12-29T16:44:56.428Z,1.10
2022-12-29T16:47:59.213Z,1.17
2022-12-29T16:51:02.128Z,1.00
2022-12-29T16:54:05.199Z,0.90
2022-12-29T16:57:07.692Z,1.00
2022-12-29T17:00:10.247Z,1.10
2022-12-29T17:03:12.834Z,1.00
2022-12-29T17:06:15.123Z,1.13
2022-12-29T17:09:17.801Z,1.00
2022-12-29T17:12:20.407Z,1.10
2022-12-29T17:15:23.152Z,0.90
2022-12-29T17:18:25.304Z,1.05
2022-12-29T17:21:28.003Z,1.00
2022-12-29T17:24:30.220Z,1.17
2022-12-29T17:27:33.022Z,0.85
2022-12-29T17:30:36.210Z,1.20
2022-12-29T17:33:39.219Z,1.00
2022-12-29T17:36:41.160Z,0.98
2022-12-29T17:39:43.836Z,0.90
2022-12-29T17:42:46.785Z,1.10
2022-12-29T17:45:49.419Z,1.05
2022-12-29T17:48:54.002Z,0.80
2022-12-29T17:51:57.316Z,1.00
2022-12-29T17:55:00.135Z,0.88
2022-12-29T17:58:02.323Z,1.10
2022-12-29T18:01:04.517Z,1.20
2022-12-29T18:04:07.277Z,0.95
2022-12-29T18:07:10.315Z,0.88
2022-12-29T18:10:13.130Z,1.05
2022-12-29T18:13:16.103Z,0.80
2022-12-29T18:16:18.921Z,1.10
2022-12-29T18:19:22.292Z,0.70
2022-12-29T18:22:25.514Z,0.95
2022-12-29T18:25:27.941Z,0.80
2022-12-29T18:28:30.487Z,0.90
2022-12-29T18:31:33.195Z,0.73
2022-12-29T18:34:36.121Z,0.80
2022-12-29T18:37:38.821Z,0.98
2022-12-29T18:40:41.631Z,1.05
2022-12-29T18:43:44.180Z,1.10
2022-12-29T18:46:46.830Z,0.80
2022-12-29T18:49:49.827Z,0.95
2022-12-29T18:52:52.685Z,1.00
2022-12-29T18:55:55.943Z,1.00
2022-12-29T18:58:58.851Z,0.90
2022-12-29T19:02:01.402Z,1.20
2022-12-29T19:05:11.069Z,1.08
2022-12-29T19:08:13.677Z,0.88
2022-12-29T19:11:16.308Z,1.20
2022-12-29T19:14:18.973Z,1.10
2022-12-29T19:17:21.976Z,1.10
2022-12-29T19:20:24.861Z,1.00
2022-12-29T19:23:27.518Z,1.20
2022-12-29T19:26:30.053Z,1.20
2022-12-29T19:29:32.938Z,1.00
2022-12-29T19:32:35.732Z,1.10
2022-12-29T19:35:38.611Z,1.00
2022-12-29T19:38:41.177Z,0.88
2022-12-29T19:41:43.972Z,1.02
2022-12-29T19:44:46.503Z,0.98
2022-12-29T19:47:49.531Z,1.10
2022-12-29T19:50:52.033Z,1.10
2022-12-29T19:53:54.380Z,1.15
2022-12-29T19:56:56.945Z,1.23
2022-12-29T19:59:59.872Z,1.10
2022-12-29T20:03:02.942Z,1.00
2022-12-29T20:06:06.124Z,1.40
2022-12-29T20:09:08.775Z,1.17
2022-12-29T20:12:11.458Z,1.13
2022-12-29T20:15:14.433Z,1.35
2022-12-29T20:18:17.693Z,0.80
2022-12-29T20:21:20.093Z,1.30
2022-12-29T20:24:22.314Z,1.27
2022-12-29T20:27:25.534Z,1.20
2022-12-29T20:30:28.559Z,1.10
2022-12-29T20:33:31.617Z,1.10
2022-12-29T20:36:34.571Z,1.10
2022-12-29T20:39:37.239Z,1.10
2022-12-29T20:42:39.740Z,1.10
2022-12-29T20:45:42.669Z,1.10
2022-12-29T20:48:45.577Z,1.58
2022-12-29T20:52:05.555Z,1.30
2022-12-29T20:55:09.261Z,1.40
2022-12-29T20:58:23.556Z,1.20
2022-12-29T21:01:26.348Z,1.55
2022-12-29T21:04:43.754Z,1.45
2022-12-29T21:07:51.927Z,1.25
2022-12-29T21:10:54.902Z,1.45
2022-12-29T21:14:01.044Z,1.58
2022-12-29T21:17:04.616Z,1.50
2022-12-29T21:20:07.341Z,1.50
2022-12-29T21:23:09.460Z,1.50
2022-12-29T21:26:12.395Z,1.27
2022-12-29T21:29:15.307Z,1.65
2022-12-29T21:32:17.963Z,1.48
2022-12-29T21:35:20.662Z,1.50
2022-12-29T21:38:23.696Z,1.48
2022-12-29T21:41:26.594Z,1.35
2022-12-29T21:44:29.312Z,1.42
2022-12-29T21:47:32.417Z,1.27
2022-12-29T21:50:35.366Z,1.60
2022-12-29T21:53:38.168Z,1.40
2022-12-29T21:56:40.801Z,1.65
2022-12-29T21:59:44.010Z,1.60
2022-12-29T22:02:47.337Z,1.48
2022-12-29T22:05:50.778Z,1.30
2022-12-29T22:08:53.743Z,1.63
2022-12-29T22:11:56.885Z,1.30
2022-12-29T22:14:59.402Z,1.30
2022-12-29T22:18:01.771Z,1.52
2022-12-29T22:21:04.392Z,1.40
2022-12-29T22:24:06.411Z,1.00
2022-12-29T22:27:09.215Z,1.25
2022-12-29T22:30:11.457Z,1.27
2022-12-29T22:33:14.333Z,1.40
2022-12-29T22:36:17.246Z,1.40
2022-12-29T22:39:19.439Z,1.40
2022-12-29T22:42:21.687Z,1.50
2022-12-29T22:45:24.389Z,1.70
2022-12-29T22:48:27.336Z,1.45
2022-12-29T22:51:30.041Z,1.20
2022-12-29T22:54:32.671Z,1.27
2022-12-29T22:57:35.290Z,1.50
2022-12-29T23:00:37.987Z,1.58
2022-12-29T23:03:40.748Z,1.50
2022-12-29T23:06:43.880Z,1.52
2022-12-29T23:09:47.187Z,1.65
2022-12-29T23:12:49.637Z,1.63
2022-12-29T23:15:52.560Z,1.55
2022-12-29T23:18:55.719Z,1.40
2022-12-29T23:21:59.249Z,1.30
2022-12-29T23:25:01.604Z,1.50
2022-12-29T23:28:04.873Z,1.35
2022-12-29T23:31:07.806Z,1.65
2022-12-29T23:34:10.215Z,1.65
2022-12-29T23:37:13.201Z,1.20
2022-12-29T23:40:16.028Z,1.20
2022-12-29T23:43:18.509Z,1.75
2022-12-29T23:46:21.016Z,1.13
2022-12-29T23:49:23.437Z,1.40
2022-12-29T23:52:26.851Z,1.20
2022-12-29T23:55:29.609Z,1.33
2022-12-29T23:58:32.153Z,1.50
